EDT,Max TemperatureF,Mean TemperatureF,Min TemperatureF,Max Dew PointF,MeanDew PointF,Min DewpointF,Max Humidity, Mean Humidity, Min Humidity, Max Sea Level PressureIn, Mean Sea Level PressureIn, Min Sea Level PressureIn, Max VisibilityMiles, Mean VisibilityMiles, Min VisibilityMiles, Max Wind SpeedMPH, Mean Wind SpeedMPH, Max Gust SpeedMPH,PrecipitationIn, CloudCover, Events, WindDirDegrees
2013-4-1,60,46,33,41,36,10,100,78,37,29.78,29.61,29.49,10,8,3,22,7,33,0.55,7,Rain,335
2013-4-2,39,32,28,15,8,5,44,36,26,29.86,29.80,29.74,10,10,8,12,7,32,0.00,3,Snow,279
2013-4-3,44,36,28,14,7,2,47,33,17,30.07,29.91,29.85,10,10,10,28,10,39,0.00,0,,282
2013-4-4,55,42,30,18,11,5,50,30,17,30.23,30.10,29.97,10,10,10,17,9,24,0.00,0,,288
2013-4-5,60,48,36,27,22,14,65,43,17,29.97,29.80,29.64,10,10,10,21,6,31,0.00,1,,301
2013-4-6,43,34,27,17,5,1,50,31,18,30.32,30.12,29.86,10,10,10,22,15,34,0.00,0,,313
2013-4-7,55,39,23,35,21,9,71,48,27,30.32,30.12,29.96,10,10,10,13,5,22,0.00,2,Rain,199
2013-4-8,62,50,39,38,35,29,89,59,29,30.11,30.01,29.91,10,10,10,21,4,30,0.00,0,,318
2013-4-9,60,51,42,45,41,37,93,79,49,30.04,29.94,29.87,10,8,2,16,4,25,0.07,6,Rain-Thunderstorm,9
2013-4-10,59,50,42,48,45,40,100,86,60,29.98,29.93,29.86,10,6,2,9,1,,0.47,8,Rain,142
2013-4-11,50,46,42,45,38,20,100,77,41,30.15,29.96,29.85,10,8,2,8,4,,0.07,8,Rain,11
2013-4-12,41,37,33,34,29,17,100,82,40,30.22,30.04,29.85,10,5,2,14,7,20,0.31,8,Rain-Snow,64
2013-4-13,50,42,33,37,33,30,96,79,54,29.91,29.84,29.78,10,9,2,10,7,,0.05,8,Rain,346
2013-4-14,52,44,37,38,32,26,93,66,41,30.19,29.99,29.89,10,10,10,15,5,26,0.01,6,Rain,301
2013-4-15,55,41,28,36,31,26,89,66,37,30.38,30.33,30.22,10,10,10,12,5,17,0.00,0,,227
2013-4-16,66,50,35,50,41,33,93,70,41,30.39,30.19,29.99,10,10,8,12,4,23,0.00,4,Rain,192
2013-4-17,64,55,45,51,32,26,81,44,27,30.32,30.16,30.00,10,10,10,17,9,25,0.00,1,Rain,317
2013-4-18,54,42,30,37,30,25,85,54,36,30.45,30.31,30.15,10,10,10,16,5,23,0.00,4,,145
2013-4-19,77,62,48,61,51,36,93,71,48,30.12,29.89,29.60,10,10,3,12,6,25,0.00,8,Rain,176
2013-4-20,66,55,42,63,41,18,94,67,33,30.18,29.77,29.58,10,9,2,15,7,28,0.29,5,Rain,285
2013-4-21,52,42,33,25,19,16,72,43,25,30.68,30.48,30.22,10,10,10,15,8,23,0.00,0,,296
2013-4-22,50,39,30,32,25,16,82,57,30,30.79,30.70,30.62,10,10,10,14,7,23,0.00,1,,71
2013-4-23,41,36,30,39,34,27,93,89,79,30.61,30.42,30.18,10,6,2,10,7,18,0.00,7,Rain,26
2013-4-24,70,56,41,52,44,39,96,79,51,30.14,29.92,29.77,10,8,2,15,8,24,0.00,6,Rain,11
2013-4-25,62,54,43,50,34,26,89,49,28,30.27,30.03,29.77,10,10,6,17,7,29,0.04,1,Rain,309
2013-4-26,57,47,37,37,30,25,82,51,34,30.43,30.38,30.29,10,10,10,12,5,17,0.00,2,,78
2013-4-27,62,48,34,36,33,30,89,55,32,30.42,30.36,30.29,10,10,10,10,4,18,0.00,2,,280
2013-4-28,66,50,35,37,34,30,89,56,31,30.33,30.28,30.24,10,10,10,13,4,20,0.00,0,,132
2013-4-29,68,54,39,45,37,32,86,58,36,30.26,30.23,30.18,10,10,10,14,3,20,0.00,0,,148
2013-4-30,69,54,39,39,31,23,89,46,23,30.38,30.30,30.24,10,10,10,13,3,20,0.00,0,,145